createdAt,value
2022-11-10T08:43:32.985Z,10.70
2022-11-10T08:53:48.633Z,11.30
2022-11-10T09:04:04.502Z,11.50
2022-11-10T09:14:20.098Z,11.90
2022-11-10T09:24:36.222Z,12.20
2022-11-10T09:34:53.261Z,12.00
2022-11-10T09:45:26.647Z,12.20
2022-11-10T09:56:02.358Z,12.50
2022-11-10T10:06:20.369Z,12.60
2022-11-10T10:17:15.335Z,13.20
2022-11-10T10:27:34.589Z,12.60
2022-11-10T10:37:54.309Z,12.80
2022-11-10T10:48:27.077Z,12.90
2022-11-10T10:59:04.207Z,12.60
2022-11-10T11:09:24.729Z,13.00
2022-11-10T11:19:41.145Z,13.60
2022-11-10T11:30:08.601Z,13.90
2022-11-10T11:40:44.070Z,13.60
2022-11-10T11:51:16.058Z,13.40
2022-11-10T12:02:05.077Z,14.00
2022-11-10T12:12:41.107Z,14.10
2022-11-10T12:23:15.751Z,14.50
2022-11-10T12:33:39.969Z,14.40
2022-11-10T12:44:20.071Z,14.70
2022-11-10T12:54:37.231Z,14.60
2022-11-10T13:05:27.779Z,14.80
2022-11-10T13:15:43.160Z,14.60
2022-11-10T13:26:24.982Z,14.90
2022-11-10T13:36:46.905Z,15.00
2022-11-10T13:47:09.031Z,14.90
2022-11-10T13:57:30.826Z,14.70
2022-11-10T14:07:46.834Z,14.90
2022-11-10T14:18:03.875Z,14.90
2022-11-10T14:28:34.842Z,14.90
2022-11-10T14:38:52.112Z,14.70
2022-11-10T14:49:10.901Z,14.70
2022-11-10T14:59:26.820Z,14.50
2022-11-10T15:10:05.035Z,14.40
2022-11-10T15:20:41.274Z,14.20
2022-11-10T15:31:03.702Z,13.90
2022-11-10T15:41:27.457Z,13.60
2022-11-10T15:51:43.182Z,13.10
2022-11-10T16:01:59.511Z,12.60
2022-11-10T16:12:22.705Z,12.10
2022-11-10T16:22:38.526Z,11.70
2022-11-10T16:32:55.113Z,11.40
2022-11-10T16:43:18.020Z,11.20
2022-11-10T16:53:33.604Z,10.90
2022-11-10T17:03:51.900Z,10.70
2022-11-10T17:14:08.584Z,10.50
2022-11-10T17:24:24.471Z,10.30
2022-11-10T17:34:39.934Z,10.20
2022-11-10T17:44:55.826Z,9.90
2022-11-10T17:55:33.926Z,9.70
2022-11-10T18:05:49.845Z,9.60
2022-11-10T18:16:06.375Z,9.40
2022-11-10T18:26:22.234Z,9.20
2022-11-10T18:36:38.239Z,9.20
2022-11-10T18:46:54.095Z,8.90
2022-11-10T18:57:13.787Z,8.90
2022-11-10T19:07:29.917Z,8.70
2022-11-10T19:17:46.725Z,8.70
2022-11-10T19:28:02.633Z,8.60
2022-11-10T19:38:18.895Z,8.30
2022-11-10T19:48:34.991Z,8.30
2022-11-10T19:58:51.512Z,8.20
2022-11-10T20:09:06.972Z,8.10
2022-11-10T20:19:23.013Z,8.00
2022-11-10T20:29:38.959Z,8.10
2022-11-10T20:39:54.845Z,8.00
2022-11-10T20:50:15.398Z,7.80
2022-11-10T21:00:32.225Z,8.00
2022-11-10T21:10:56.534Z,7.70
2022-11-10T21:21:28.082Z,7.60
2022-11-10T21:31:44.579Z,7.70
2022-11-10T21:42:00.131Z,7.50
2022-11-10T21:52:15.592Z,7.40
2022-11-10T22:02:31.435Z,7.30
2022-11-10T22:13:05.914Z,7.20
2022-11-10T22:23:41.809Z,7.10
2022-11-10T22:33:57.590Z,7.10
2022-11-10T22:44:14.773Z,6.90
2022-11-10T22:54:30.468Z,6.90
2022-11-10T23:04:46.397Z,6.80
2022-11-10T23:15:02.386Z,6.80
2022-11-10T23:25:18.238Z,6.60
2022-11-10T23:35:33.590Z,6.60
2022-11-10T23:46:06.965Z,6.40
2022-11-10T23:56:23.059Z,6.20
